WELCOME TO BirgenAir Virtual Airlines

 STATISTICS

Pilots 29
Aircraft in fleet 0
Routes 0
Total hours: 5023:10
Flights total 5089
Flights Regular 127
Flights Charter 4962
% Flights Regular 2.50 %

 IVAO

 Active Runways & Weather of LTBA

Kalkış Pisti

35R-L

İniş Pisti

05

LTBA 210320Z 08002KT CAVOK 18/14 Q1013 NOSIG RMK RWY17L 00000KT RWY05 VRB02KT RWY23 08002KT

 LATEST FLIGHTS

CallsignPilotDepartureArrivalDateFlight Time
BGN003Bülent ÇAĞLAR  LFLM  LFLJ 2019-05-21 00:24
BGN003Bülent ÇAĞLAR  SOCA  SBRF 2019-05-20 02:16
BGN557Semih İspiroğlu  UBBB  LTAJ 2019-05-20 01:48
BGN003Bülent ÇAĞLAR  MMUN  SOCA 2019-05-19 03:06
BGN003Bülent ÇAĞLAR  SPJL  MSLP 2019-05-18 04:00

 NEWEST PILOTS

 FUTURE EVENTS

EventDate

  Facebook

 TOP 5 PILOTS BY FLIGHTS

CallsignPilotFlights
BGN003Bülent ÇAĞLAR629
BGN001Umut Keskin512
BGN974Turgut Uyanık288
BGN002Murat Türkarslan257
BGN005Ceyhun Özbesler257

 News

TitleDate



Copyright © 2011 - 2018 BirgenAir Virtual Airlines. All rights reserved. Developed by Goktug Unver